sensor_id;sensor_type;location;lat;lon;timestamp;pressure;altitude;pressure_sealevel;temperature;humidity
77017;BME280;65949;53.132;17.930;2024-02-23T00:01:05;98542.69;;;7.79;90.32
77017;BME280;65949;53.132;17.930;2024-02-23T00:03:50;98543.58;;;7.80;90.37
77017;BME280;65949;53.132;17.930;2024-02-23T00:06:16;98545.48;;;7.81;90.31
77017;BME280;65949;53.132;17.930;2024-02-23T00:08:43;98544.44;;;7.82;90.49
77017;BME280;65949;53.132;17.930;2024-02-23T00:11:10;98544.69;;;7.83;90.48
77017;BME280;65949;53.132;17.930;2024-02-23T00:13:37;98542.91;;;7.84;90.38
77017;BME280;65949;53.132;17.930;2024-02-23T00:16:04;98544.77;;;7.85;90.28
77017;BME280;65949;53.132;17.930;2024-02-23T00:18:30;98543.25;;;7.85;90.05
77017;BME280;65949;53.132;17.930;2024-02-23T00:20:57;98549.96;;;7.87;90.18
77017;BME280;65949;53.132;17.930;2024-02-23T00:23:24;98545.86;;;7.87;90.35
77017;BME280;65949;53.132;17.930;2024-02-23T00:25:50;98541.98;;;7.89;90.43
77017;BME280;65949;53.132;17.930;2024-02-23T00:28:17;98534.77;;;7.90;90.38
77017;BME280;65949;53.132;17.930;2024-02-23T00:30:44;98531.77;;;7.90;90.47
77017;BME280;65949;53.132;17.930;2024-02-23T00:33:11;98529.26;;;7.90;90.39
77017;BME280;65949;53.132;17.930;2024-02-23T00:35:37;98525.73;;;7.92;90.49
77017;BME280;65949;53.132;17.930;2024-02-23T00:38:04;98527.02;;;7.94;90.05
77017;BME280;65949;53.132;17.930;2024-02-23T00:40:31;98523.41;;;7.95;90.17
77017;BME280;65949;53.132;17.930;2024-02-23T00:42:58;98526.74;;;7.97;90.41
77017;BME280;65949;53.132;17.930;2024-02-23T00:45:26;98525.80;;;7.97;90.27
77017;BME280;65949;53.132;17.930;2024-02-23T00:47:53;98525.27;;;7.98;90.53
77017;BME280;65949;53.132;17.930;2024-02-23T00:50:20;98522.30;;;7.99;90.22
77017;BME280;65949;53.132;17.930;2024-02-23T00:52:47;98517.48;;;8.01;90.18
77017;BME280;65949;53.132;17.930;2024-02-23T00:55:13;98514.63;;;8.02;90.36
77017;BME280;65949;53.132;17.930;2024-02-23T00:57:40;98512.43;;;8.03;90.06
77017;BME280;65949;53.132;17.930;2024-02-23T01:00:08;98510.02;;;8.05;90.36
77017;BME280;65949;53.132;17.930;2024-02-23T01:02:35;98504.52;;;8.06;89.93
77017;BME280;65949;53.132;17.930;2024-02-23T01:05:03;98503.40;;;8.06;90.19
77017;BME280;65949;53.132;17.930;2024-02-23T01:07:30;98509.98;;;8.10;89.86
77017;BME280;65949;53.132;17.930;2024-02-23T01:09:56;98505.86;;;8.10;89.74
77017;BME280;65949;53.132;17.930;2024-02-23T01:12:25;98506.70;;;8.12;90.21
77017;BME280;65949;53.132;17.930;2024-02-23T01:14:51;98504.19;;;8.14;90.24
77017;BME280;65949;53.132;17.930;2024-02-23T01:17:18;98495.62;;;8.14;90.13
77017;BME280;65949;53.132;17.930;2024-02-23T01:19:45;98497.88;;;8.15;90.31
77017;BME280;65949;53.132;17.930;2024-02-23T01:22:11;98494.77;;;8.16;89.92
77017;BME280;65949;53.132;17.930;2024-02-23T01:24:39;98497.56;;;8.16;90.14
77017;BME280;65949;53.132;17.930;2024-02-23T01:27:05;98498.75;;;8.16;90.21
77017;BME280;65949;53.132;17.930;2024-02-23T01:29:32;98494.64;;;8.17;90.13
77017;BME280;65949;53.132;17.930;2024-02-23T01:31:59;98493.73;;;8.18;90.29
77017;BME280;65949;53.132;17.930;2024-02-23T01:34:26;98499.97;;;8.18;90.01
77017;BME280;65949;53.132;17.930;2024-02-23T01:36:53;98496.17;;;8.18;90.14
77017;BME280;65949;53.132;17.930;2024-02-23T01:39:20;98498.62;;;8.17;90.21
77017;BME280;65949;53.132;17.930;2024-02-23T01:41:46;98497.37;;;8.18;90.36
77017;BME280;65949;53.132;17.930;2024-02-23T01:44:13;98507.59;;;8.17;90.61
77017;BME280;65949;53.132;17.930;2024-02-23T01:46:42;98507.77;;;8.17;90.58
77017;BME280;65949;53.132;17.930;2024-02-23T01:49:08;98510.68;;;8.16;90.61
77017;BME280;65949;53.132;17.930;2024-02-23T01:51:36;98505.99;;;8.14;90.99
77017;BME280;65949;53.132;17.930;2024-02-23T01:54:03;98513.40;;;8.13;91.07
77017;BME280;65949;53.132;17.930;2024-02-23T01:56:32;98513.80;;;8.10;91.18
77017;BME280;65949;53.132;17.930;2024-02-23T01:58:59;98511.69;;;8.10;91.33
77017;BME280;65949;53.132;17.930;2024-02-23T02:01:27;98504.02;;;8.08;91.30
77017;BME280;65949;53.132;17.930;2024-02-23T02:03:53;98505.27;;;8.09;91.28
77017;BME280;65949;53.132;17.930;2024-02-23T02:06:20;98503.65;;;8.09;91.30
77017;BME280;65949;53.132;17.930;2024-02-23T02:08:47;98508.67;;;8.10;91.42
77017;BME280;65949;53.132;17.930;2024-02-23T02:11:14;98513.13;;;8.10;91.33
77017;BME280;65949;53.132;17.930;2024-02-23T02:13:41;98514.41;;;8.11;91.62
77017;BME280;65949;53.132;17.930;2024-02-23T02:16:08;98519.06;;;8.12;91.45
77017;BME280;65949;53.132;17.930;2024-02-23T02:18:34;98516.54;;;8.13;91.56
77017;BME280;65949;53.132;17.930;2024-02-23T02:21:01;98512.37;;;8.14;91.65
77017;BME280;65949;53.132;17.930;2024-02-23T02:23:28;98505.15;;;8.15;92.03
77017;BME280;65949;53.132;17.930;2024-02-23T02:25:56;98502.60;;;8.16;92.17
77017;BME280;65949;53.132;17.930;2024-02-23T02:28:24;98501.09;;;8.16;92.41
77017;BME280;65949;53.132;17.930;2024-02-23T02:30:52;98507.54;;;8.15;92.40
77017;BME280;65949;53.132;17.930;2024-02-23T02:33:20;98510.05;;;8.14;92.86
77017;BME280;65949;53.132;17.930;2024-02-23T02:35:47;98504.73;;;8.13;93.24
77017;BME280;65949;53.132;17.930;2024-02-23T02:38:14;98504.70;;;8.14;93.29
77017;BME280;65949;53.132;17.930;2024-02-23T02:40:41;98502.61;;;8.15;93.45
77017;BME280;65949;53.132;17.930;2024-02-23T02:43:08;98498.81;;;8.16;93.74
77017;BME280;65949;53.132;17.930;2024-02-23T02:45:34;98492.47;;;8.16;93.96
77017;BME280;65949;53.132;17.930;2024-02-23T02:48:03;98491.20;;;8.18;93.99
77017;BME280;65949;53.132;17.930;2024-02-23T02:50:30;98485.66;;;8.19;93.86
77017;BME280;65949;53.132;17.930;2024-02-23T02:52:57;98486.27;;;8.21;93.96
77017;BME280;65949;53.132;17.930;2024-02-23T02:55:23;98483.56;;;8.21;94.06
77017;BME280;65949;53.132;17.930;2024-02-23T02:57:50;98481.44;;;8.22;94.14
77017;BME280;65949;53.132;17.930;2024-02-23T03:00:16;98489.52;;;8.23;94.15
77017;BME280;65949;53.132;17.930;2024-02-23T03:02:43;98493.70;;;8.23;94.20
77017;BME280;65949;53.132;17.930;2024-02-23T03:05:10;98498.41;;;8.24;94.24
77017;BME280;65949;53.132;17.930;2024-02-23T03:07:37;98507.44;;;8.25;94.38
77017;BME280;65949;53.132;17.930;2024-02-23T03:10:04;98510.67;;;8.26;94.24
77017;BME280;65949;53.132;17.930;2024-02-23T03:12:31;98506.87;;;8.27;94.62
77017;BME280;65949;53.132;17.930;2024-02-23T03:14:58;98508.86;;;8.29;94.45
77017;BME280;65949;53.132;17.930;2024-02-23T03:17:25;98515.27;;;8.31;94.44
77017;BME280;65949;53.132;17.930;2024-02-23T03:19:51;98512.55;;;8.32;94.54
77017;BME280;65949;53.132;17.930;2024-02-23T03:22:18;98513.15;;;8.33;94.68
77017;BME280;65949;53.132;17.930;2024-02-23T03:24:45;98518.17;;;8.36;94.58
77017;BME280;65949;53.132;17.930;2024-02-23T03:27:11;98516.30;;;8.39;94.68
77017;BME280;65949;53.132;17.930;2024-02-23T03:29:38;98513.10;;;8.43;94.69
77017;BME280;65949;53.132;17.930;2024-02-23T03:32:06;98515.89;;;8.46;94.51
77017;BME280;65949;53.132;17.930;2024-02-23T03:34:33;98522.52;;;8.50;94.47
77017;BME280;65949;53.132;17.930;2024-02-23T03:36:59;98521.89;;;8.53;94.31
77017;BME280;65949;53.132;17.930;2024-02-23T03:39:29;98523.50;;;8.56;94.36
77017;BME280;65949;53.132;17.930;2024-02-23T03:41:55;98530.28;;;8.59;94.40
77017;BME280;65949;53.132;17.930;2024-02-23T03:44:22;98533.31;;;8.61;94.23
77017;BME280;65949;53.132;17.930;2024-02-23T03:46:49;98534.70;;;8.64;94.11
77017;BME280;65949;53.132;17.930;2024-02-23T03:49:16;98542.27;;;8.65;94.06
77017;BME280;65949;53.132;17.930;2024-02-23T03:51:43;98545.10;;;8.66;93.92
77017;BME280;65949;53.132;17.930;2024-02-23T03:54:09;98556.34;;;8.65;93.96
77017;BME280;65949;53.132;17.930;2024-02-23T03:56:40;98562.15;;;8.65;93.96
77017;BME280;65949;53.132;17.930;2024-02-23T03:59:08;98567.71;;;8.65;94.05
77017;BME280;65949;53.132;17.930;2024-02-23T04:01:38;98569.52;;;8.66;94.18
77017;BME280;65949;53.132;17.930;2024-02-23T04:04:05;98574.21;;;8.65;94.00
77017;BME280;65949;53.132;17.930;2024-02-23T04:06:33;98575.61;;;8.64;94.19
77017;BME280;65949;53.132;17.930;2024-02-23T04:09:00;98580.48;;;8.63;94.12
77017;BME280;65949;53.132;17.930;2024-02-23T04:11:27;98587.79;;;8.61;94.05
77017;BME280;65949;53.132;17.930;2024-02-23T04:13:53;98591.45;;;8.60;94.23
77017;BME280;65949;53.132;17.930;2024-02-23T04:16:25;98587.23;;;8.60;94.46
77017;BME280;65949;53.132;17.930;2024-02-23T04:18:53;98592.52;;;8.60;94.42
77017;BME280;65949;53.132;17.930;2024-02-23T04:21:20;98594.86;;;8.61;94.41
77017;BME280;65949;53.132;17.930;2024-02-23T04:23:47;98596.10;;;8.62;94.58
77017;BME280;65949;53.132;17.930;2024-02-23T04:26:13;98595.14;;;8.64;94.53
77017;BME280;65949;53.132;17.930;2024-02-23T04:28:41;98596.39;;;8.64;94.41
77017;BME280;65949;53.132;17.930;2024-02-23T04:31:09;98600.64;;;8.65;94.40
77017;BME280;65949;53.132;17.930;2024-02-23T04:33:37;98605.30;;;8.66;94.70
77017;BME280;65949;53.132;17.930;2024-02-23T04:36:05;98607.45;;;8.67;94.49
77017;BME280;65949;53.132;17.930;2024-02-23T04:38:32;98610.77;;;8.68;94.58
77017;BME280;65949;53.132;17.930;2024-02-23T04:41:03;98613.05;;;8.68;94.48
77017;BME280;65949;53.132;17.930;2024-02-23T04:43:33;98609.21;;;8.67;94.66
77017;BME280;65949;53.132;17.930;2024-02-23T04:46:00;98615.15;;;8.67;94.48
77017;BME280;65949;53.132;17.930;2024-02-23T04:48:27;98618.73;;;8.67;94.63
77017;BME280;65949;53.132;17.930;2024-02-23T04:50:53;98623.35;;;8.67;94.68
77017;BME280;65949;53.132;17.930;2024-02-23T04:53:20;98628.94;;;8.68;94.69
77017;BME280;65949;53.132;17.930;2024-02-23T04:55:47;98629.05;;;8.67;94.76
77017;BME280;65949;53.132;17.930;2024-02-23T04:58:13;98631.23;;;8.68;94.76
77017;BME280;65949;53.132;17.930;2024-02-23T05:00:40;98638.02;;;8.68;94.80
77017;BME280;65949;53.132;17.930;2024-02-23T05:03:07;98638.41;;;8.69;94.62
77017;BME280;65949;53.132;17.930;2024-02-23T05:05:35;98638.04;;;8.70;94.55
77017;BME280;65949;53.132;17.930;2024-02-23T05:08:02;98638.42;;;8.72;94.81
77017;BME280;65949;53.132;17.930;2024-02-23T05:10:29;98639.69;;;8.73;94.67
77017;BME280;65949;53.132;17.930;2024-02-23T05:12:55;98647.77;;;8.75;94.42
77017;BME280;65949;53.132;17.930;2024-02-23T05:15:22;98650.50;;;8.76;94.65
77017;BME280;65949;53.132;17.930;2024-02-23T05:17:49;98659.05;;;8.77;94.60
77017;BME280;65949;53.132;17.930;2024-02-23T05:20:15;98661.95;;;8.80;94.53
77017;BME280;65949;53.132;17.930;2024-02-23T05:22:42;98661.14;;;8.82;94.45
77017;BME280;65949;53.132;17.930;2024-02-23T05:25:09;98664.80;;;8.83;94.27
77017;BME280;65949;53.132;17.930;2024-02-23T05:27:35;98668.11;;;8.84;94.30
77017;BME280;65949;53.132;17.930;2024-02-23T05:30:02;98672.83;;;8.84;94.34
77017;BME280;65949;53.132;17.930;2024-02-23T05:32:29;98678.02;;;8.85;94.16
77017;BME280;65949;53.132;17.930;2024-02-23T05:34:56;98684.31;;;8.85;93.98
77017;BME280;65949;53.132;17.930;2024-02-23T05:37:23;98691.64;;;8.84;93.89
77017;BME280;65949;53.132;17.930;2024-02-23T05:39:50;98694.38;;;8.85;94.01
77017;BME280;65949;53.132;17.930;2024-02-23T05:42:17;98696.45;;;8.85;93.82
77017;BME280;65949;53.132;17.930;2024-02-23T05:44:44;98699.96;;;8.84;94.00
77017;BME280;65949;53.132;17.930;2024-02-23T05:47:11;98702.30;;;8.84;93.92
77017;BME280;65949;53.132;17.930;2024-02-23T05:49:40;98711.17;;;8.82;93.83
77017;BME280;65949;53.132;17.930;2024-02-23T05:52:07;98715.92;;;8.80;93.81
77017;BME280;65949;53.132;17.930;2024-02-23T05:54:34;98723.74;;;8.79;93.84
77017;BME280;65949;53.132;17.930;2024-02-23T05:57:00;98728.71;;;8.80;93.72
77017;BME280;65949;53.132;17.930;2024-02-23T05:59:27;98739.55;;;8.81;93.83
77017;BME280;65949;53.132;17.930;2024-02-23T06:01:54;98743.80;;;8.80;93.79
77017;BME280;65949;53.132;17.930;2024-02-23T06:04:23;98756.71;;;8.83;93.72
77017;BME280;65949;53.132;17.930;2024-02-23T06:06:50;98767.06;;;8.85;93.55
77017;BME280;65949;53.132;17.930;2024-02-23T06:09:17;98768.76;;;8.87;93.59
77017;BME280;65949;53.132;17.930;2024-02-23T06:11:43;98773.33;;;8.89;93.48
77017;BME280;65949;53.132;17.930;2024-02-23T06:14:10;98780.46;;;8.91;93.46
77017;BME280;65949;53.132;17.930;2024-02-23T06:16:37;98785.91;;;8.95;93.36
77017;BME280;65949;53.132;17.930;2024-02-23T06:19:04;98793.63;;;8.96;93.28
77017;BME280;65949;53.132;17.930;2024-02-23T06:21:31;98801.55;;;8.98;93.10
77017;BME280;65949;53.132;17.930;2024-02-23T06:23:58;98810.61;;;9.00;93.03
77017;BME280;65949;53.132;17.930;2024-02-23T06:26:25;98817.59;;;9.02;92.91
77017;BME280;65949;53.132;17.930;2024-02-23T06:28:52;98822.54;;;9.04;92.81
77017;BME280;65949;53.132;17.930;2024-02-23T06:31:18;98829.87;;;9.08;92.48
77017;BME280;65949;53.132;17.930;2024-02-23T06:33:45;98833.02;;;9.11;92.54
77017;BME280;65949;53.132;17.930;2024-02-23T06:36:15;98840.15;;;9.14;92.24
77017;BME280;65949;53.132;17.930;2024-02-23T06:38:42;98846.72;;;9.16;91.76
77017;BME280;65949;53.132;17.930;2024-02-23T06:41:09;98854.44;;;9.21;90.99
77017;BME280;65949;53.132;17.930;2024-02-23T06:43:37;98856.86;;;9.27;90.10
77017;BME280;65949;53.132;17.930;2024-02-23T06:46:06;98860.77;;;9.34;86.38
77017;BME280;65949;53.132;17.930;2024-02-23T06:48:35;98870.61;;;9.47;85.92
77017;BME280;65949;53.132;17.930;2024-02-23T06:51:04;98878.08;;;9.55;85.72
77017;BME280;65949;53.132;17.930;2024-02-23T06:53:31;98882.55;;;9.59;84.06
77017;BME280;65949;53.132;17.930;2024-02-23T06:55:58;98881.98;;;9.68;79.27
77017;BME280;65949;53.132;17.930;2024-02-23T06:58:25;98884.81;;;9.78;78.63
77017;BME280;65949;53.132;17.930;2024-02-23T07:00:52;98888.95;;;9.84;77.60
77017;BME280;65949;53.132;17.930;2024-02-23T07:03:18;98893.34;;;9.91;77.09
77017;BME280;65949;53.132;17.930;2024-02-23T07:05:45;98896.30;;;9.94;74.44
77017;BME280;65949;53.132;17.930;2024-02-23T07:08:13;98900.79;;;9.99;76.73
77017;BME280;65949;53.132;17.930;2024-02-23T07:10:40;98906.91;;;10.00;77.73
77017;BME280;65949;53.132;17.930;2024-02-23T07:13:07;98910.46;;;9.99;77.37
77017;BME280;65949;53.132;17.930;2024-02-23T07:15:34;98913.70;;;9.99;77.57
77017;BME280;65949;53.132;17.930;2024-02-23T07:18:02;98920.75;;;9.97;72.91
77017;BME280;65949;53.132;17.930;2024-02-23T07:20:29;98925.99;;;10.00;72.70
77017;BME280;65949;53.132;17.930;2024-02-23T07:22:56;98924.36;;;10.02;70.01
77017;BME280;65949;53.132;17.930;2024-02-23T07:25:22;98924.91;;;10.03;69.42
77017;BME280;65949;53.132;17.930;2024-02-23T07:27:50;98938.54;;;10.04;69.18
77017;BME280;65949;53.132;17.930;2024-02-23T07:30:17;98948.95;;;10.04;69.03
77017;BME280;65949;53.132;17.930;2024-02-23T07:32:44;98960.96;;;10.02;70.48
77017;BME280;65949;53.132;17.930;2024-02-23T07:35:11;98963.67;;;9.99;67.67
77017;BME280;65949;53.132;17.930;2024-02-23T07:37:38;98962.30;;;9.97;67.92
77017;BME280;65949;53.132;17.930;2024-02-23T07:40:05;98972.40;;;9.94;66.60
77017;BME280;65949;53.132;17.930;2024-02-23T07:42:32;98980.20;;;9.91;64.84
77017;BME280;65949;53.132;17.930;2024-02-23T07:44:59;98983.64;;;9.91;64.07
77017;BME280;65949;53.132;17.930;2024-02-23T07:47:25;98987.65;;;9.91;62.96
77017;BME280;65949;53.132;17.930;2024-02-23T07:49:56;98994.78;;;9.91;64.09
77017;BME280;65949;53.132;17.930;2024-02-23T07:52:22;99001.21;;;9.89;64.33
77017;BME280;65949;53.132;17.930;2024-02-23T07:54:53;99006.20;;;9.87;63.52
77017;BME280;65949;53.132;17.930;2024-02-23T07:57:20;99010.02;;;9.83;61.85
77017;BME280;65949;53.132;17.930;2024-02-23T07:59:47;99018.11;;;9.82;63.08
77017;BME280;65949;53.132;17.930;2024-02-23T08:02:15;99017.39;;;9.81;63.93
77017;BME280;65949;53.132;17.930;2024-02-23T08:04:42;99025.33;;;9.79;65.00
77017;BME280;65949;53.132;17.930;2024-02-23T08:07:09;99032.10;;;9.78;63.35
77017;BME280;65949;53.132;17.930;2024-02-23T08:09:36;99034.99;;;9.77;63.29
77017;BME280;65949;53.132;17.930;2024-02-23T08:12:04;99042.52;;;9.75;64.38
77017;BME280;65949;53.132;17.930;2024-02-23T08:14:31;99046.83;;;9.73;62.77
77017;BME280;65949;53.132;17.930;2024-02-23T08:16:57;99057.48;;;9.74;63.47
77017;BME280;65949;53.132;17.930;2024-02-23T08:19:24;99062.63;;;9.74;62.82
77017;BME280;65949;53.132;17.930;2024-02-23T08:21:51;99066.49;;;9.75;64.48
77017;BME280;65949;53.132;17.930;2024-02-23T08:24:17;99070.13;;;9.76;63.97
77017;BME280;65949;53.132;17.930;2024-02-23T08:26:44;99074.90;;;9.80;64.09
77017;BME280;65949;53.132;17.930;2024-02-23T08:29:11;99073.80;;;9.83;62.69
77017;BME280;65949;53.132;17.930;2024-02-23T08:31:38;99081.03;;;9.87;63.87
77017;BME280;65949;53.132;17.930;2024-02-23T08:34:04;99089.91;;;9.89;64.39
77017;BME280;65949;53.132;17.930;2024-02-23T08:36:31;99093.73;;;9.88;63.39
77017;BME280;65949;53.132;17.930;2024-02-23T08:38:57;99094.50;;;9.89;64.14
77017;BME280;65949;53.132;17.930;2024-02-23T08:41:24;99097.27;;;9.90;64.49
77017;BME280;65949;53.132;17.930;2024-02-23T08:43:51;99105.68;;;9.92;64.42
77017;BME280;65949;53.132;17.930;2024-02-23T08:46:17;99112.20;;;9.94;64.30
77017;BME280;65949;53.132;17.930;2024-02-23T08:48:46;99119.34;;;9.98;64.28
77017;BME280;65949;53.132;17.930;2024-02-23T08:51:13;99125.88;;;10.01;64.46
77017;BME280;65949;53.132;17.930;2024-02-23T08:53:40;99129.00;;;10.06;64.08
77017;BME280;65949;53.132;17.930;2024-02-23T08:56:07;99130.45;;;10.10;63.24
77017;BME280;65949;53.132;17.930;2024-02-23T08:58:34;99129.66;;;10.17;63.68
77017;BME280;65949;53.132;17.930;2024-02-23T09:01:01;99132.54;;;10.26;63.73
77017;BME280;65949;53.132;17.930;2024-02-23T09:03:30;99134.94;;;10.34;63.66
77017;BME280;65949;53.132;17.930;2024-02-23T09:05:58;99134.37;;;10.40;61.85
77017;BME280;65949;53.132;17.930;2024-02-23T09:08:24;99137.23;;;10.46;63.05
77017;BME280;65949;53.132;17.930;2024-02-23T09:10:51;99134.36;;;10.53;62.99
77017;BME280;65949;53.132;17.930;2024-02-23T09:13:18;99139.33;;;10.59;62.85
77017;BME280;65949;53.132;17.930;2024-02-23T09:15:44;99142.05;;;10.64;62.01
77017;BME280;65949;53.132;17.930;2024-02-23T09:18:11;99149.95;;;10.69;62.01
77017;BME280;65949;53.132;17.930;2024-02-23T09:20:37;99151.81;;;10.73;62.10
77017;BME280;65949;53.132;17.930;2024-02-23T09:23:04;99156.34;;;10.73;60.75
77017;BME280;65949;53.132;17.930;2024-02-23T09:25:31;99161.23;;;10.73;60.49
77017;BME280;65949;53.132;17.930;2024-02-23T09:27:58;99167.88;;;10.72;61.06
77017;BME280;65949;53.132;17.930;2024-02-23T09:30:25;99170.91;;;10.72;61.73
77017;BME280;65949;53.132;17.930;2024-02-23T09:32:51;99180.93;;;10.71;61.52
77017;BME280;65949;53.132;17.930;2024-02-23T09:35:19;99185.86;;;10.69;59.98
77017;BME280;65949;53.132;17.930;2024-02-23T09:37:45;99190.88;;;10.68;61.14
77017;BME280;65949;53.132;17.930;2024-02-23T09:40:12;99189.27;;;10.67;60.98
77017;BME280;65949;53.132;17.930;2024-02-23T09:42:41;99200.23;;;10.73;62.56
77017;BME280;65949;53.132;17.930;2024-02-23T09:45:10;99208.06;;;10.81;62.34
77017;BME280;65949;53.132;17.930;2024-02-23T09:47:38;99218.98;;;10.87;63.05
77017;BME280;65949;53.132;17.930;2024-02-23T09:50:06;99226.88;;;10.95;62.76
77017;BME280;65949;53.132;17.930;2024-02-23T09:52:34;99236.27;;;11.01;62.06
77017;BME280;65949;53.132;17.930;2024-02-23T09:55:01;99242.80;;;11.03;61.59
77017;BME280;65949;53.132;17.930;2024-02-23T09:57:30;99250.58;;;11.06;62.39
77017;BME280;65949;53.132;17.930;2024-02-23T09:59:57;99257.27;;;11.10;60.54
77017;BME280;65949;53.132;17.930;2024-02-23T10:02:25;99271.80;;;11.11;60.53
77017;BME280;65949;53.132;17.930;2024-02-23T10:04:53;99281.34;;;11.14;60.44
77017;BME280;65949;53.132;17.930;2024-02-23T10:07:21;99284.52;;;11.16;60.29
77017;BME280;65949;53.132;17.930;2024-02-23T10:09:47;99286.73;;;11.20;60.11
77017;BME280;65949;53.132;17.930;2024-02-23T10:12:16;99291.44;;;11.20;58.44
77017;BME280;65949;53.132;17.930;2024-02-23T10:14:42;99295.10;;;11.16;56.63
77017;BME280;65949;53.132;17.930;2024-02-23T10:17:09;99300.77;;;11.12;56.69
77017;BME280;65949;53.132;17.930;2024-02-23T10:19:35;99302.50;;;11.06;54.92
77017;BME280;65949;53.132;17.930;2024-02-23T10:22:02;99302.27;;;11.02;54.74
77017;BME280;65949;53.132;17.930;2024-02-23T10:24:29;99302.77;;;11.02;55.49
77017;BME280;65949;53.132;17.930;2024-02-23T10:26:56;99310.78;;;11.06;56.76
77017;BME280;65949;53.132;17.930;2024-02-23T10:29:23;99319.97;;;11.09;55.39
77017;BME280;65949;53.132;17.930;2024-02-23T10:31:51;99320.88;;;11.07;55.18
77017;BME280;65949;53.132;17.930;2024-02-23T10:34:19;99321.21;;;11.03;56.19
77017;BME280;65949;53.132;17.930;2024-02-23T10:36:46;99330.02;;;11.04;57.03
77017;BME280;65949;53.132;17.930;2024-02-23T10:39:18;99330.84;;;11.07;57.23
77017;BME280;65949;53.132;17.930;2024-02-23T10:42:00;99337.41;;;11.10;56.90
77017;BME280;65949;53.132;17.930;2024-02-23T10:44:29;99342.52;;;11.08;55.03
77017;BME280;65949;53.132;17.930;2024-02-23T10:46:58;99345.05;;;11.06;54.80
77017;BME280;65949;53.132;17.930;2024-02-23T10:49:29;99348.50;;;11.06;54.66
77017;BME280;65949;53.132;17.930;2024-02-23T10:51:57;99353.14;;;11.09;55.04
77017;BME280;65949;53.132;17.930;2024-02-23T10:54:25;99350.42;;;11.12;54.87
77017;BME280;65949;53.132;17.930;2024-02-23T10:56:52;99346.67;;;11.14;54.15
77017;BME280;65949;53.132;17.930;2024-02-23T10:59:22;99351.44;;;11.19;54.88
77017;BME280;65949;53.132;17.930;2024-02-23T11:01:50;99353.13;;;11.28;54.38
77017;BME280;65949;53.132;17.930;2024-02-23T11:04:19;99353.13;;;11.30;53.15
77017;BME280;65949;53.132;17.930;2024-02-23T11:06:51;99352.83;;;11.36;53.79
77017;BME280;65949;53.132;17.930;2024-02-23T11:09:23;99349.36;;;11.43;53.48
77017;BME280;65949;53.132;17.930;2024-02-23T11:11:57;99351.90;;;11.40;52.54
77017;BME280;65949;53.132;17.930;2024-02-23T11:14:36;99366.98;;;11.37;52.88
77017;BME280;65949;53.132;17.930;2024-02-23T11:17:04;99368.02;;;11.35;52.74
77017;BME280;65949;53.132;17.930;2024-02-23T11:19:39;99368.98;;;11.39;53.89
77017;BME280;65949;53.132;17.930;2024-02-23T11:22:09;99371.97;;;11.47;55.39
77017;BME280;65949;53.132;17.930;2024-02-23T11:24:43;99369.23;;;11.54;54.70
77017;BME280;65949;53.132;17.930;2024-02-23T11:27:15;99369.27;;;11.58;55.06
77017;BME280;65949;53.132;17.930;2024-02-23T11:29:47;99366.89;;;11.64;55.44
77017;BME280;65949;53.132;17.930;2024-02-23T11:32:17;99368.35;;;11.70;54.77
77017;BME280;65949;53.132;17.930;2024-02-23T11:34:56;99367.03;;;11.76;53.64
77017;BME280;65949;53.132;17.930;2024-02-23T11:37:23;99372.75;;;11.88;55.23
77017;BME280;65949;53.132;17.930;2024-02-23T11:39:50;99378.42;;;11.98;54.77
77017;BME280;65949;53.132;17.930;2024-02-23T11:42:17;99380.60;;;11.92;54.43
77017;BME280;65949;53.132;17.930;2024-02-23T11:44:44;99384.48;;;11.76;54.04
77017;BME280;65949;53.132;17.930;2024-02-23T11:47:11;99388.39;;;11.61;52.86
77017;BME280;65949;53.132;17.930;2024-02-23T11:49:37;99389.97;;;11.53;54.66
77017;BME280;65949;53.132;17.930;2024-02-23T11:52:04;99393.88;;;11.57;54.49
77017;BME280;65949;53.132;17.930;2024-02-23T11:54:31;99394.29;;;11.67;54.34
77017;BME280;65949;53.132;17.930;2024-02-23T11:56:58;99390.81;;;11.77;53.75
77017;BME280;65949;53.132;17.930;2024-02-23T11:59:24;99393.45;;;11.79;52.48
77017;BME280;65949;53.132;17.930;2024-02-23T12:01:51;99397.44;;;11.69;51.12
77017;BME280;65949;53.132;17.930;2024-02-23T12:04:18;99405.71;;;11.61;53.19
77017;BME280;65949;53.132;17.930;2024-02-23T12:06:45;99405.58;;;11.59;53.02
77017;BME280;65949;53.132;17.930;2024-02-23T12:09:12;99403.77;;;11.52;52.35
77017;BME280;65949;53.132;17.930;2024-02-23T12:11:40;99400.77;;;11.48;53.84
77017;BME280;65949;53.132;17.930;2024-02-23T12:14:08;99403.27;;;11.56;53.64
77017;BME280;65949;53.132;17.930;2024-02-23T12:16:35;99405.36;;;11.60;52.75
77017;BME280;65949;53.132;17.930;2024-02-23T12:19:05;99397.89;;;11.61;53.11
77017;BME280;65949;53.132;17.930;2024-02-23T12:21:34;99403.35;;;11.52;53.73
77017;BME280;65949;53.132;17.930;2024-02-23T12:24:04;99410.16;;;11.50;55.37
77017;BME280;65949;53.132;17.930;2024-02-23T12:26:32;99415.05;;;11.55;55.73
77017;BME280;65949;53.132;17.930;2024-02-23T12:29:03;99416.76;;;11.63;55.14
77017;BME280;65949;53.132;17.930;2024-02-23T12:31:31;99418.54;;;11.74;54.05
77017;BME280;65949;53.132;17.930;2024-02-23T12:33:58;99421.08;;;11.75;53.54
77017;BME280;65949;53.132;17.930;2024-02-23T12:36:25;99425.15;;;11.69;54.44
77017;BME280;65949;53.132;17.930;2024-02-23T12:38:52;99425.35;;;11.60;54.92
77017;BME280;65949;53.132;17.930;2024-02-23T12:41:18;99427.27;;;11.51;55.37
77017;BME280;65949;53.132;17.930;2024-02-23T12:43:45;99433.73;;;11.45;55.78
77017;BME280;65949;53.132;17.930;2024-02-23T12:46:12;99442.15;;;11.41;53.85
77017;BME280;65949;53.132;17.930;2024-02-23T12:48:40;99446.48;;;11.29;52.45
77017;BME280;65949;53.132;17.930;2024-02-23T12:51:07;99455.60;;;11.19;52.30
77017;BME280;65949;53.132;17.930;2024-02-23T12:53:38;99458.84;;;11.09;53.05
77017;BME280;65949;53.132;17.930;2024-02-23T12:56:10;99467.30;;;11.01;52.91
77017;BME280;65949;53.132;17.930;2024-02-23T12:58:39;99474.69;;;10.95;51.99